TAF KMFE
AMD KMFE 082127Z 0821/0918 08005KT P6SM SCT014 SCT035 OVC040 FM090500 13006KT P6SM BKN017 FM090700 VRB04KT 1SM BR OVC006 FM091600 18010KT P6SM BKN035=
METAR KMFE
SPECI KMFE 082236Z 07005KT 8SM BKN026 OVC047 23/19 A2993 RMK AO2 T02330194
KMFE 082153Z 09005KT 7SM OVC045 23/19 A2994 RMK AO2 SLP135 T02330194
SPECI KMFE 082118Z 08005KT 8SM SCT014 SCT034 OVC040 23/19 A2994 RMK AO2 T02280194
KMFE 082053Z 08005KT 8SM BKN012 OVC020 22/19 A2994 RMK AO2 SLP137 T02220189 56028 ?
SPECI KMFE 082030Z 09006KT 8SM SCT013 OVC021 23/18 A2995 RMK AO2 T02280183
WC KMFE
WS KMFE
WV KMFE